Cora, Missouri
Current Conditions -  °F | °C
As of 8:55 AM on Tuesday 21 Oct 2014 (Local Time) from KIRK Reporting Station
Clear Clear  
Wind Chill: 50°   Ceiling: Unl
Heat Index: 50°   Visibility: 10mi
Dew Point: 45°   Wind: 6mph
Humidity: 83%   Direction: 50°NE
Pressure: 30.15"   Gusts: NA
Location:  40.1663°N, 93.1629°W
Report Text: KIRK 211355Z AUTO 05005KT 10SM CLR 10/07 A3015 RMK AO2 SLP215 T01000072
Loading
Personal Weather Stations






























Interactive Weather Map
Tropical Storm Tracking
New forecast layout! Learn more

10-Day Weather Forecast

Advertisements
Track Severe Weather on mobile